Time;durP1;ratioP1;P1;durP2;ratioP2;P2;SDS_P1;SDS_P2;PMS_P1;PMS_P2;Temp;Humidity;BMP_temperature;BMP_pressure;BME280_temperature;BME280_humidity;BME280_pressure;Samples;Min_cycle;Max_cycle;Signal;HPM_P1;HPM_P2
2023/08/20 00:00:27;;;;;;;;;;;27.60;92.50;;;27.85;54.28;98959.78;4968695;28;120384;-78
2023/08/20 00:03:28;;;;;;;;;;;27.50;92.60;;;27.85;54.51;98965.44;4961820;28;118855;-77
2023/08/20 00:05:55;;;;;;;;;;;27.50;92.60;;;27.84;54.54;98964.66;4943778;28;124077;-77
2023/08/20 00:08:42;;;;;;;;;;;27.50;92.70;;;27.81;54.51;98959.00;4960854;28;123512;-78
2023/08/20 00:15:05;;;;;;;;;;;27.50;92.80;;;27.75;54.73;98972.84;4929578;28;119663;-78
2023/08/20 00:17:44;;;;;;;;;;;27.50;92.90;;;27.73;54.87;98973.28;4955490;28;124003;-78
2023/08/20 00:20:53;;;;;;;;;;;27.40;93.00;;;27.70;54.79;98971.28;4961262;28;123425;-78
2023/08/20 00:23:49;;;;;;;;;;;27.40;93.10;;;27.67;55.11;98969.31;4963058;28;119965;-78
2023/08/20 00:26:37;;;;;;;;;;;27.40;93.10;;;27.67;54.84;98983.50;4959038;28;119064;-78
2023/08/20 00:29:17;;;;;;;;;;;27.40;93.20;;;27.66;55.42;98973.34;4939852;28;123801;-79
2023/08/20 00:31:43;;;;;;;;;;;27.40;93.30;;;27.67;55.50;98983.50;4958827;28;123946;-79
2023/08/20 00:34:17;;;;;;;;;;;27.40;93.40;;;27.67;55.27;98977.81;4956477;28;119379;-79
2023/08/20 00:36:47;;;;;;;;;;;27.40;93.80;;;27.68;55.28;98979.41;4986714;28;118845;-79
2023/08/20 00:39:19;;;;;;;;;;;27.40;93.50;;;27.67;55.25;98977.81;4981209;28;124943;-78
2023/08/20 00:42:25;;;;;;;;;;;27.40;93.60;;;27.66;55.16;98986.75;4977298;28;124298;-79
2023/08/20 00:45:05;;;;;;;;;;;27.30;93.60;;;27.65;55.41;98974.59;4985229;28;119479;-79
2023/08/20 00:47:31;;;;;;;;;;;27.40;93.70;;;27.64;55.52;98984.31;4985609;28;118583;-79
2023/08/20 00:50:07;;;;;;;;;;;27.30;93.70;;;27.63;55.49;98979.88;4988498;28;124319;-79
2023/08/20 00:56:23;;;;;;;;;;;27.30;93.90;;;27.55;55.90;98981.19;4958500;28;120906;-77
2023/08/20 01:05:00;;;;;;;;;;;27.20;94.00;;;27.49;56.00;98982.91;4878917;28;125109;-78
2023/08/20 01:07:48;;;;;;;;;;;27.20;94.10;;;27.44;55.92;98980.53;4890925;28;119645;-78
2023/08/20 01:11:03;;;;;;;;;;;27.20;94.20;;;27.42;55.70;98977.28;4892104;28;118070;-78
2023/08/20 01:14:27;;;;;;;;;;;27.20;94.20;;;27.39;56.15;98986.66;4890294;28;124890;-78
2023/08/20 01:16:53;;;;;;;;;;;27.10;94.20;;;27.37;55.98;98987.06;4900047;28;123583;-78
2023/08/20 01:19:34;;;;;;;;;;;27.10;94.30;;;27.35;55.81;98983.03;4909984;28;119033;-78
2023/08/20 01:22:43;;;;;;;;;;;27.10;94.30;;;27.33;56.00;98991.19;4892418;28;118683;-78
2023/08/20 01:25:28;;;;;;;;;;;27.00;94.40;;;27.31;56.01;98995.22;4908257;28;123971;-78
2023/08/20 01:31:40;;;;;;;;;;;27.00;94.50;;;27.27;56.31;98994.47;4911002;28;120180;-78
2023/08/20 01:34:33;;;;;;;;;;;27.00;94.50;;;27.25;56.33;98985.56;4946578;28;118739;-77
2023/08/20 01:37:05;;;;;;;;;;;27.00;94.60;;;27.24;56.47;98992.50;4956927;28;124199;-76
2023/08/20 01:40:06;;;;;;;;;;;26.90;94.60;;;27.21;56.44;98990.47;4936300;28;124596;-79
2023/08/20 01:43:27;;;;;;;;;;;26.90;94.70;;;27.18;56.65;98999.03;4935476;28;119001;-77
2023/08/20 01:46:41;;;;;;;;;;;26.90;94.70;;;27.16;56.58;98998.59;4900325;28;119112;-77
2023/08/20 01:49:15;;;;;;;;;;;26.90;94.80;;;27.16;56.63;99004.28;4869693;28;124263;-78
2023/08/20 01:52:03;;;;;;;;;;;26.80;94.80;;;27.14;56.91;98995.41;4859072;28;124300;-79
2023/08/20 01:54:59;;;;;;;;;;;26.80;94.90;;;27.10;56.64;98998.25;4917048;28;120180;-78
2023/08/20 01:57:36;;;;;;;;;;;26.80;94.90;;;27.11;56.85;98997.03;4879499;28;118956;-78
2023/08/20 02:00:41;;;;;;;;;;;26.90;95.00;;;27.11;57.05;99011.22;4885620;28;124776;-78
2023/08/20 02:04:00;;;;;;;;;;;26.80;95.10;;;27.06;57.09;99003.97;4934261;28;122088;-77
2023/08/20 02:06:35;;;;;;;;;;;26.80;95.10;;;27.04;57.18;99000.72;4937851;28;120074;-77
2023/08/20 02:09:14;;;;;;;;;;;26.80;95.20;;;27.03;57.36;99001.16;4919300;28;119059;-78
2023/08/20 02:11:40;;;;;;;;;;;26.70;95.20;;;27.03;56.93;99001.16;4919121;28;124121;-78
2023/08/20 02:17:23;;;;;;;;;;;26.70;95.30;;;26.97;57.52;98997.94;4919534;28;119914;-77
2023/08/20 02:20:11;;;;;;;;;;;26.70;95.40;;;26.95;57.24;99010.94;4913158;28;118559;-78
2023/08/20 02:23:12;;;;;;;;;;;26.70;95.40;;;26.92;57.23;99008.94;4965206;28;124827;-77
2023/08/20 02:26:03;;;;;;;;;;;26.70;95.50;;;26.88;57.49;99009.78;4988655;28;123044;-78
2023/08/20 02:28:39;;;;;;;;;;;26.60;95.50;;;26.88;57.54;99012.63;4972614;28;119301;-78
2023/08/20 02:31:13;;;;;;;;;;;26.60;95.60;;;26.88;57.52;99012.63;5027360;27;117782;-78
2023/08/20 02:37:25;;;;;;;;;;;26.60;95.70;;;26.80;57.52;99013.91;4951224;28;124337;-77
2023/08/20 02:39:52;;;;;;;;;;;26.60;95.70;;;26.80;58.01;99013.09;4869946;28;119284;-77
2023/08/20 02:42:30;;;;;;;;;;;26.50;95.80;;;26.78;57.97;99007.84;4856527;28;117755;-77
2023/08/20 02:45:15;;;;;;;;;;;26.50;95.80;;;26.76;57.87;99009.47;4875962;28;124888;-77
2023/08/20 02:47:41;;;;;;;;;;;26.50;95.90;;;26.74;57.98;99017.59;4860359;28;123979;-78
2023/08/20 02:51:04;;;;;;;;;;;26.50;95.90;;;26.69;58.24;99016.03;4851263;28;120236;-78
2023/08/20 02:53:50;;;;;;;;;;;26.50;96.00;;;26.66;58.19;99009.16;4865929;28;119625;-77
2023/08/20 02:57:15;;;;;;;;;;;26.40;96.10;;;26.63;58.39;99010.00;4857825;28;124248;-77
2023/08/20 03:02:52;;;;;;;;;;;26.30;96.10;;;26.58;58.10;98999.09;4848017;29;120316;-78
2023/08/20 03:05:39;;;;;;;;;;;26.30;96.20;;;26.56;58.12;98989.38;4810035;29;118688;-78
2023/08/20 03:08:14;;;;;;;;;;;26.30;96.30;;;26.55;58.41;98994.25;4817785;29;123622;-77
2023/08/20 03:10:52;;;;;;;;;;;26.30;96.30;;;26.55;58.42;98984.97;4836652;28;123545;-77
2023/08/20 03:13:24;;;;;;;;;;;26.30;96.40;;;26.52;58.41;98982.94;4855497;28;119773;-77
2023/08/20 03:15:53;;;;;;;;;;;26.20;96.40;;;26.50;58.39;98991.81;4886624;28;118748;-78
2023/08/20 03:18:38;;;;;;;;;;;26.30;96.50;;;26.48;58.51;98993.47;4942939;28;124575;-77
2023/08/20 03:21:26;;;;;;;;;;;26.20;96.50;;;26.47;58.52;98987.00;4927939;28;124022;-77
2023/08/20 03:24:04;;;;;;;;;;;26.20;96.60;;;26.45;58.90;98983.75;4929239;28;119039;-78
2023/08/20 03:27:10;;;;;;;;;;;26.20;96.60;;;26.42;58.96;98990.28;4941673;28;119014;-78
2023/08/20 03:30:02;;;;;;;;;;;26.20;96.70;;;26.41;58.93;99003.63;4929021;28;124224;-78
2023/08/20 03:32:38;;;;;;;;;;;26.10;96.70;;;26.37;59.41;98997.16;4935129;28;124000;-77
2023/08/20 03:35:51;;;;;;;;;;;26.10;96.80;;;26.33;59.10;99007.72;4920319;28;118417;-77
2023/08/20 03:38:42;;;;;;;;;;;26.10;96.80;;;26.29;59.22;99003.31;4933220;28;118606;-78
2023/08/20 03:41:23;;;;;;;;;;;26.10;96.90;;;26.27;59.43;99005.72;4964539;28;124204;-78
2023/08/20 03:44:02;;;;;;;;;;;26.00;96.90;;;26.26;59.22;98996.44;4961991;28;123173;-78
2023/08/20 03:46:47;;;;;;;;;;;26.00;97.00;;;26.26;59.18;98999.28;4965507;28;120533;-78
2023/08/20 03:49:23;;;;;;;;;;;26.00;97.00;;;26.23;59.50;98989.56;4984629;28;119504;-78
2023/08/20 03:52:17;;;;;;;;;;;26.00;97.10;;;26.20;59.57;98996.06;4976829;28;124548;-78
2023/08/20 03:54:59;;;;;;;;;;;26.00;97.10;;;26.21;59.69;99002.53;4984899;28;124109;-78
2023/08/20 03:58:15;;;;;;;;;;;26.00;97.20;;;26.18;59.65;98989.19;4967119;28;119428;-77
2023/08/20 04:04:55;;;;;;;;;;;25.90;97.20;;;26.12;59.48;98999.34;4971695;28;124570;-78
2023/08/20 04:07:37;;;;;;;;;;;25.90;97.30;;;26.10;59.39;98991.25;4976016;28;124320;-78
2023/08/20 04:10:12;;;;;;;;;;;25.80;97.30;;;26.09;59.56;98997.34;4979758;28;120080;-78
2023/08/20 04:12:53;;;;;;;;;;;25.80;97.30;;;26.08;59.62;99007.06;4984149;28;118991;-78
2023/08/20 04:15:59;;;;;;;;;;;25.80;97.30;;;26.05;59.55;99007.88;4973539;28;125553;-78
2023/08/20 04:19:00;;;;;;;;;;;25.80;97.40;;;26.02;59.72;99009.50;4963761;28;122918;-78
2023/08/20 04:21:38;;;;;;;;;;;25.80;97.50;;;25.99;59.95;99005.47;4940708;28;119706;-78
2023/08/20 04:27:27;;;;;;;;;;;25.70;97.70;;;25.80;60.68;99005.94;4957558;28;123714;-78
2023/08/20 04:33:27;;;;;;;;;;;25.60;97.80;;;25.71;60.80;99012.03;4948937;28;119982;-78
2023/08/20 04:39:17;;;;;;;;;;;25.50;97.90;;;25.69;60.79;99019.31;4950865;28;124581;-78
2023/08/20 04:42:20;;;;;;;;;;;25.50;98.00;;;25.67;61.20;99021.75;4947302;28;124092;-78
2023/08/20 04:47:50;;;;;;;;;;;25.40;98.10;;;25.69;60.99;99027.81;4957534;28;119252;-78
2023/08/20 04:50:53;;;;;;;;;;;25.40;98.10;;;25.70;60.83;99026.59;4935150;28;123948;-78
2023/08/20 04:56:55;;;;;;;;;;;25.40;98.20;;;25.73;61.02;99037.09;4955079;28;120031;-78
2023/08/20 05:02:25;;;;;;;;;;;25.50;98.30;;;25.76;60.61;99042.75;4954197;28;123976;-78
2023/08/20 05:04:54;;;;;;;;;;;25.40;98.30;;;25.79;61.02;99043.94;4957290;28;125358;-77
2023/08/20 05:07:28;;;;;;;;;;;25.50;98.30;;;25.81;60.70;99047.16;4942112;28;119215;-77
2023/08/20 05:16:27;;;;;;;;;;;25.50;98.40;;;25.85;60.88;99048.00;4976401;28;125199;-78
2023/08/20 05:19:03;;;;;;;;;;;25.50;98.40;;;25.86;61.12;99026.97;4977227;28;119547;-78
2023/08/20 05:21:29;;;;;;;;;;;25.50;98.50;;;25.82;60.79;99009.16;4976783;28;119265;-77
2023/08/20 05:24:29;;;;;;;;;;;25.50;98.50;;;25.77;60.96;99004.72;4972607;28;124648;-78
2023/08/20 05:27:43;;;;;;;;;;;25.40;98.50;;;25.78;61.19;99009.16;5002992;28;123655;-78
2023/08/20 05:30:13;;;;;;;;;;;25.50;98.50;;;25.83;61.05;99024.94;4992033;28;119375;-78
2023/08/20 05:33:26;;;;;;;;;;;25.50;98.50;;;25.88;60.97;99041.53;4986984;28;118807;-78
2023/08/20 05:36:33;;;;;;;;;;;25.50;98.50;;;25.91;60.87;99043.53;4987839;28;124621;-78
2023/08/20 05:39:39;;;;;;;;;;;25.50;98.50;;;25.91;60.67;99037.06;4975375;28;123840;-78
2023/08/20 05:42:08;;;;;;;;;;;25.50;98.60;;;25.82;61.24;99043.16;4984945;28;120405;-78
2023/08/20 05:44:53;;;;;;;;;;;25.40;98.60;;;25.80;61.09;99045.56;4992871;28;119020;-78
2023/08/20 05:47:44;;;;;;;;;;;25.50;98.60;;;25.82;60.76;99051.63;4986934;28;124256;-79
2023/08/20 05:50:20;;;;;;;;;;;25.50;98.90;;;25.86;60.84;99055.28;4980371;28;125192;-78
2023/08/20 05:53:33;;;;;;;;;;;25.50;98.60;;;25.90;60.67;99061.75;4979367;28;119715;-79
2023/08/20 05:56:02;;;;;;;;;;;25.50;98.60;;;25.97;60.88;99060.91;4977995;28;119374;-78
2023/08/20 05:58:31;;;;;;;;;;;25.60;98.60;;;26.04;60.80;99054.41;4982761;28;124460;-78
2023/08/20 06:01:04;;;;;;;;;;;25.60;98.60;;;26.09;60.79;99051.16;4971816;28;124088;-78
2023/08/20 06:03:41;;;;;;;;;;;25.70;98.50;;;26.15;60.57;99055.97;4978343;28;119895;-78
2023/08/20 06:06:08;;;;;;;;;;;25.70;98.50;;;26.23;60.19;99059.59;4968734;28;117707;-78
2023/08/20 06:08:37;;;;;;;;;;;25.80;98.50;;;26.29;59.91;99055.09;4982578;28;124156;-78
2023/08/20 06:14:20;;;;;;;;;;;25.90;98.40;;;26.43;59.62;99060.66;4970407;28;118993;-78
2023/08/20 06:19:53;;;;;;;;;;;26.00;98.30;;;26.62;59.26;99067.06;4956887;28;124511;-79
2023/08/20 06:22:28;;;;;;;;;;;26.10;98.30;;;26.72;59.46;99065.41;4953053;28;124160;-77
2023/08/20 06:24:54;;;;;;;;;;;26.20;98.20;;;26.78;59.15;99064.53;4976069;28;119788;-77
2023/08/20 06:27:45;;;;;;;;;;;26.30;98.10;;;26.80;58.71;99066.97;4962228;28;117945;-78
2023/08/20 06:30:39;;;;;;;;;;;26.30;98.00;;;26.86;58.79;99079.47;4970417;28;124687;-77
2023/08/20 06:33:09;;;;;;;;;;;26.30;98.00;;;26.98;58.69;99075.34;4942114;28;123721;-78
2023/08/20 06:35:44;;;;;;;;;;;26.40;97.90;;;27.05;58.38;99069.59;4961032;28;120316;-78
2023/08/20 06:38:43;;;;;;;;;;;26.50;97.90;;;27.09;58.51;99078.91;4966142;28;120096;-78
2023/08/20 06:43:57;;;;;;;;;;;26.60;97.80;;;27.17;58.09;99080.50;4945221;28;124730;-78
2023/08/20 06:46:42;;;;;;;;;;;26.60;97.80;;;27.23;58.19;99083.69;4930569;28;119089;-78
2023/08/20 06:52:07;;;;;;;;;;;26.70;97.70;;;27.42;57.78;99062.44;4944565;28;125753;-78
2023/08/20 06:54:33;;;;;;;;;;;26.80;97.60;;;27.45;57.53;99062.38;4934602;28;124046;-78
2023/08/20 06:57:05;;;;;;;;;;;26.90;97.60;;;27.51;57.75;99076.91;4954726;28;119140;-78
2023/08/20 06:59:37;;;;;;;;;;;26.80;97.60;;;27.57;57.88;99075.25;4960559;28;120265;-78
2023/08/20 07:02:06;;;;;;;;;;;27.00;97.60;;;27.59;57.62;99072.78;4933914;28;124143;-77
2023/08/20 07:04:41;;;;;;;;;;;27.00;97.50;;;27.62;57.57;99076.81;4960181;28;123859;-78
2023/08/20 07:07:08;;;;;;;;;;;27.10;97.40;;;27.63;57.37;99081.28;4944019;28;119496;-78
2023/08/20 07:09:45;;;;;;;;;;;27.10;97.30;;;27.62;57.52;99082.50;4927938;28;117829;-78
2023/08/20 07:12:11;;;;;;;;;;;27.10;97.30;;;27.64;57.59;99080.84;4967175;28;124923;-78
2023/08/20 07:14:44;;;;;;;;;;;27.10;97.30;;;27.66;57.38;99089.75;4947231;28;123757;-78
2023/08/20 07:17:13;;;;;;;;;;;27.10;97.30;;;27.69;57.19;99088.91;4946527;28;118899;-78
2023/08/20 07:19:51;;;;;;;;;;;27.10;97.20;;;27.70;57.66;99084.88;4987807;28;118031;-78
2023/08/20 07:26:13;;;;;;;;;;;27.30;97.30;;;27.94;57.17;99094.38;4979954;28;125974;-79
2023/08/20 07:31:42;;;;;;;;;;;27.50;97.20;;;28.19;56.84;99096.09;4979355;28;120359;-78
2023/08/20 07:34:18;;;;;;;;;;;27.60;97.10;;;28.26;56.58;99098.84;4986433;28;124434;-77
2023/08/20 07:36:44;;;;;;;;;;;27.60;97.00;;;28.34;56.38;99099.56;4972324;28;123724;-78
2023/08/20 07:39:33;;;;;;;;;;;27.20;96.80;;;28.45;56.08;99103.09;4971404;28;119602;-79
2023/08/20 07:42:08;;;;;;;;;;;27.80;96.90;;;28.51;55.95;99109.13;4981758;28;118951;-78
2023/08/20 07:44:38;;;;;;;;;;;27.80;96.80;;;28.52;55.94;99110.72;4977886;28;124767;-78
2023/08/20 07:47:04;;;;;;;;;;;27.90;96.70;;;28.57;55.83;99102.53;4974196;28;124286;-77
2023/08/20 07:50:06;;;;;;;;;;;28.00;96.70;;;28.63;55.93;99106.50;4981304;28;119220;-77
2023/08/20 07:53:20;;;;;;;;;;;28.10;96.70;;;28.69;55.85;99109.66;4988147;28;118460;-78
2023/08/20 07:56:17;;;;;;;;;;;28.20;96.50;;;28.80;55.53;99112.34;4907009;28;124321;-77
2023/08/20 07:58:43;;;;;;;;;;;28.20;96.40;;;28.88;55.33;99105.31;4910988;28;124538;-78
2023/08/20 08:01:29;;;;;;;;;;;28.30;96.30;;;28.94;55.09;99111.38;4909839;28;123465;-77
2023/08/20 08:04:19;;;;;;;;;;;28.40;96.10;;;28.97;55.01;99116.19;4887078;28;118768;-78
2023/08/20 08:07:03;;;;;;;;;;;28.50;96.10;;;29.03;54.84;99109.56;4893325;28;124145;-78
2023/08/20 08:09:38;;;;;;;;;;;28.50;96.00;;;29.15;54.68;99104.53;4908926;28;123826;-78
2023/08/20 08:12:14;;;;;;;;;;;28.60;96.00;;;29.15;54.40;99101.69;4893538;28;120206;-78
2023/08/20 08:14:45;;;;;;;;;;;28.60;95.80;;;29.19;54.52;99105.28;4890559;28;119056;-78
2023/08/20 08:17:26;;;;;;;;;;;28.60;95.90;;;29.25;54.66;99112.09;4906684;28;124014;-78
2023/08/20 08:26:06;;;;;;;;;;;28.80;95.50;;;29.26;53.67;99120.22;4874429;28;119961;-78
2023/08/20 08:28:50;;;;;;;;;;;28.80;95.20;;;29.26;53.78;99120.22;4897990;28;124045;-78
2023/08/20 08:31:54;;;;;;;;;;;28.80;95.10;;;29.27;53.31;99121.81;4927789;28;124612;-78
2023/08/20 08:34:21;;;;;;;;;;;28.90;95.10;;;29.35;53.47;99122.50;4902909;28;119528;-78
2023/08/20 08:36:56;;;;;;;;;;;28.90;95.00;;;29.42;52.91;99115.88;4909341;28;118541;-78
2023/08/20 08:43:17;;;;;;;;;;;29.00;94.80;;;29.57;53.27;99122.13;4858205;28;126336;-77
2023/08/20 08:46:03;;;;;;;;;;;29.10;94.90;;;29.65;53.05;99115.09;4860300;28;118829;-77
2023/08/20 08:48:35;;;;;;;;;;;29.10;94.80;;;29.69;52.96;99113.81;4874319;28;118390;-77
2023/08/20 08:51:14;;;;;;;;;;;29.20;94.60;;;29.70;52.79;99114.63;4872822;28;126752;-77
2023/08/20 08:54:08;;;;;;;;;;;29.20;94.60;;;29.72;52.75;99112.16;4875260;28;123995;-78
2023/08/20 08:56:37;;;;;;;;;;;29.20;94.60;;;29.74;53.04;99112.50;4847109;28;119494;-78
2023/08/20 08:59:19;;;;;;;;;;;29.20;94.90;;;29.75;52.63;99114.13;4867970;28;118731;-78
2023/08/20 09:02:22;;;;;;;;;;;29.20;94.60;;;29.77;53.15;99119.34;4854707;28;123279;-78
2023/08/20 09:04:57;;;;;;;;;;;29.30;94.60;;;29.79;52.83;99122.59;4857315;28;123516;-78
2023/08/20 09:07:26;;;;;;;;;;;29.30;94.60;;;29.85;52.56;99118.81;4867243;28;118906;-78
2023/08/20 09:13:14;;;;;;;;;;;29.50;94.50;;;29.99;52.29;99122.63;4905314;28;124027;-78
2023/08/20 09:16:23;;;;;;;;;;;29.50;94.30;;;30.02;51.92;99122.56;4861377;28;121978;-78
2023/08/20 09:19:42;;;;;;;;;;;29.50;94.30;;;30.10;52.31;99120.38;4933823;28;120250;-78
2023/08/20 09:22:35;;;;;;;;;;;29.60;94.30;;;30.16;51.83;99119.41;5020116;28;119953;-78
2023/08/20 09:25:05;;;;;;;;;;;29.70;94.20;;;30.22;51.40;99125.41;4972072;28;124230;-78
2023/08/20 09:27:57;;;;;;;;;;;29.70;94.00;;;30.22;51.25;99127.44;4982883;28;123529;-78
2023/08/20 09:31:11;;;;;;;;;;;29.80;93.70;;;30.19;51.53;99122.63;4996973;28;119706;-78
2023/08/20 09:33:57;;;;;;;;;;;29.80;93.60;;;30.20;51.47;99122.22;4991068;28;118176;-78
2023/08/20 09:36:49;;;;;;;;;;;29.80;93.50;;;30.26;50.89;99111.94;4979168;28;124838;-78
2023/08/20 09:39:27;;;;;;;;;;;29.80;93.50;;;30.35;50.79;99112.13;4916730;28;124110;-78
2023/08/20 09:42:04;;;;;;;;;;;29.90;93.40;;;30.42;50.46;99111.19;4932546;28;119238;-79
2023/08/20 09:44:52;;;;;;;;;;;30.00;93.30;;;30.49;50.04;99118.78;4912993;28;118523;-78
2023/08/20 09:47:22;;;;;;;;;;;30.00;93.10;;;30.52;49.59;99120.75;4918793;28;124437;-78
2023/08/20 09:50:26;;;;;;;;;;;30.00;92.60;;;30.55;49.40;99122.72;4941269;28;123658;-79
2023/08/20 09:53:35;;;;;;;;;;;30.10;92.40;;;30.59;49.13;99109.19;4930300;28;119328;-79
2023/08/20 09:59:13;;;;;;;;;;;30.10;92.00;;;30.65;47.66;99115.97;4955332;28;125158;-79
2023/08/20 10:01:47;;;;;;;;;;;30.10;91.40;;;30.65;47.95;99106.63;4942980;28;124453;-79
2023/08/20 10:04:22;;;;;;;;;;;30.20;91.50;;;30.69;47.25;99105.28;4939816;28;119379;-79
2023/08/20 10:06:52;;;;;;;;;;;30.20;91.30;;;30.71;46.88;99108.50;4909042;28;118443;-79
2023/08/20 10:09:46;;;;;;;;;;;30.20;91.10;;;30.67;47.50;99107.78;4899812;28;123857;-79
2023/08/20 10:12:13;;;;;;;;;;;30.30;91.00;;;30.71;47.06;99099.13;4904175;28;123211;-79
2023/08/20 10:14:51;;;;;;;;;;;30.30;91.00;;;30.75;47.64;99103.50;4924887;28;119594;-79
2023/08/20 10:17:34;;;;;;;;;;;30.40;91.00;;;30.77;47.61;99101.03;4964816;28;119430;-79
2023/08/20 10:26:24;;;;;;;;;;;30.50;91.20;;;30.92;46.82;99095.00;4968562;28;120037;-79
2023/08/20 10:29:46;;;;;;;;;;;30.50;90.80;;;30.95;46.65;99102.69;4979424;28;120053;-79
2023/08/20 10:36:45;;;;;;;;;;;30.50;90.90;;;31.01;47.62;99104.56;4994147;28;124356;-78
2023/08/20 10:43:23;;;;;;;;;;;30.60;90.80;;;31.15;46.88;99096.91;4973473;28;119910;-79
2023/08/20 10:46:17;;;;;;;;;;;30.70;90.70;;;31.25;46.82;99102.38;4946743;28;123034;-79
2023/08/20 10:49:16;;;;;;;;;;;30.70;90.60;;;31.34;46.27;99098.88;4966832;28;124634;-79
2023/08/20 10:52:09;;;;;;;;;;;30.90;90.50;;;31.43;45.53;99099.09;4964986;28;119853;-80
2023/08/20 10:54:57;;;;;;;;;;;30.90;90.00;;;31.47;44.65;99096.94;4968203;28;118940;-79
2023/08/20 10:57:34;;;;;;;;;;;31.00;88.60;;;31.51;44.78;99101.75;4955182;28;124464;-79
2023/08/20 11:00:21;;;;;;;;;;;31.00;88.30;;;31.56;44.86;99104.84;4946987;28;124202;-78
2023/08/20 11:03:04;;;;;;;;;;;31.10;88.60;;;31.64;44.38;99100.56;4956077;28;119241;-79
2023/08/20 11:05:49;;;;;;;;;;;31.10;88.30;;;31.75;43.89;99093.75;4959493;28;118504;-78
2023/08/20 11:15:17;;;;;;;;;;;31.40;87.50;;;31.98;43.77;99087.03;4881144;28;119106;-79
2023/08/20 11:17:47;;;;;;;;;;;31.40;86.90;;;32.09;43.12;99085.47;4897691;28;119020;-79
2023/08/20 11:20:28;;;;;;;;;;;31.50;86.40;;;32.18;43.71;99078.28;4906538;28;124595;-79
2023/08/20 11:23:16;;;;;;;;;;;31.60;86.30;;;32.28;42.87;99075.13;4907113;28;123924;-79
2023/08/20 11:25:43;;;;;;;;;;;31.70;85.30;;;32.40;42.38;99067.00;4887455;28;118915;-79
2023/08/20 11:28:31;;;;;;;;;;;31.80;85.00;;;32.53;42.25;99082.97;4876815;28;118341;-79
2023/08/20 11:31:05;;;;;;;;;;;31.90;84.80;;;32.65;41.63;99080.59;4904240;28;124150;-79
2023/08/20 11:33:53;;;;;;;;;;;32.00;84.20;;;32.75;41.60;99068.00;4890816;28;124255;-79
2023/08/20 11:37:09;;;;;;;;;;;32.20;83.40;;;32.82;41.17;99073.50;4885915;28;120150;-78
2023/08/20 11:39:54;;;;;;;;;;;32.20;83.00;;;32.92;40.84;99072.34;4908495;28;118970;-78
2023/08/20 11:42:38;;;;;;;;;;;32.30;82.10;;;33.02;40.59;99053.28;4903024;28;124093;-78
2023/08/20 11:45:22;;;;;;;;;;;32.40;81.70;;;33.12;40.71;99074.19;4903429;28;123465;-78
2023/08/20 11:48:36;;;;;;;;;;;32.50;82.00;;;33.25;40.18;99071.31;4942689;28;119676;-78
2023/08/20 11:51:21;;;;;;;;;;;32.60;80.90;;;33.36;39.83;99066.81;4970876;28;119271;-78
2023/08/20 11:53:47;;;;;;;;;;;32.70;80.20;;;33.48;39.44;99067.25;4978684;28;123587;-79
2023/08/20 11:56:34;;;;;;;;;;;32.90;80.50;;;33.59;38.86;99062.78;4983613;28;123908;-79
2023/08/20 11:59:11;;;;;;;;;;;33.00;79.30;;;33.73;39.03;99060.69;4995611;28;119480;-78
2023/08/20 12:04:59;;;;;;;;;;;33.20;78.40;;;33.93;38.41;99051.75;4964361;28;125440;-78
2023/08/20 12:08:07;;;;;;;;;;;33.30;77.80;;;33.99;37.97;99049.91;4965435;28;123709;-78
2023/08/20 12:10:47;;;;;;;;;;;33.40;76.60;;;34.01;37.28;99048.16;4947144;28;119420;-79
2023/08/20 12:16:37;;;;;;;;;;;33.50;76.30;;;34.27;36.82;99048.03;4984452;28;123841;-78
2023/08/20 12:19:36;;;;;;;;;;;33.60;75.30;;;34.34;37.08;99032.59;4984486;28;124424;-79
2023/08/20 12:22:05;;;;;;;;;;;33.70;75.10;;;34.38;37.28;99036.94;4906085;28;119986;-78
2023/08/20 12:25:22;;;;;;;;;;;33.70;74.60;;;34.45;37.06;99038.75;4899235;28;118087;-78
2023/08/20 12:28:48;;;;;;;;;;;33.80;74.20;;;34.59;36.72;99035.34;4849950;29;124387;-79
2023/08/20 12:31:32;;;;;;;;;;;33.90;73.50;;;34.75;35.79;99035.09;4837532;29;123587;-79
2023/08/20 12:34:36;;;;;;;;;;;34.10;72.60;;;34.84;35.69;99042.94;4834136;29;119515;-79
2023/08/20 12:37:02;;;;;;;;;;;34.10;71.70;;;34.87;35.09;99032.56;4825357;29;118596;-79
2023/08/20 12:39:51;;;;;;;;;;;34.20;70.80;;;34.88;35.68;99037.84;4815580;29;125658;-79
2023/08/20 12:42:53;;;;;;;;;;;34.30;70.90;;;35.01;35.10;99032.00;4812836;29;123911;-79
2023/08/20 12:45:20;;;;;;;;;;;34.40;70.40;;;35.12;34.34;99020.88;4855605;28;119602;-79
2023/08/20 12:48:17;;;;;;;;;;;34.50;69.20;;;35.12;34.53;99020.88;4855970;28;118725;-79
2023/08/20 12:51:19;;;;;;;;;;;34.50;69.10;;;35.18;34.75;99018.97;4876193;28;124339;-79
2023/08/20 12:53:53;;;;;;;;;;;34.50;68.90;;;35.29;34.38;99017.72;4859816;28;124041;-79
2023/08/20 12:56:19;;;;;;;;;;;34.60;68.80;;;35.44;34.54;99023.63;4873482;28;119585;-79
2023/08/20 12:58:52;;;;;;;;;;;34.70;68.80;;;35.58;34.08;99018.09;4870637;28;118217;-79
2023/08/20 13:01:20;;;;;;;;;;;34.90;68.20;;;35.72;33.45;99015.84;4870549;28;124029;-79
2023/08/20 13:03:49;;;;;;;;;;;35.00;67.00;;;35.82;33.51;99008.81;4883622;28;124213;-79
2023/08/20 13:06:15;;;;;;;;;;;35.20;66.30;;;35.99;33.30;99007.19;4885860;28;119373;-79
2023/08/20 13:08:51;;;;;;;;;;;35.30;66.00;;;36.12;32.45;99012.00;4873227;28;119878;-79
2023/08/20 13:11:30;;;;;;;;;;;35.40;65.30;;;36.18;32.62;99004.31;4868959;28;124206;-79
2023/08/20 13:14:06;;;;;;;;;;;35.40;65.30;;;36.21;32.47;99003.34;4869306;28;123746;-79
2023/08/20 13:16:39;;;;;;;;;;;35.00;64.50;;;36.27;31.98;99001.38;4898869;28;121780;-79
2023/08/20 13:19:09;;;;;;;;;;;35.60;64.20;;;36.35;32.30;99004.72;4872145;28;119259;-79
2023/08/20 13:21:41;;;;;;;;;;;35.70;64.30;;;36.46;31.80;99002.94;4912282;28;123638;-79
2023/08/20 13:24:27;;;;;;;;;;;35.80;63.70;;;36.53;31.94;98998.13;4898065;28;123844;-79
2023/08/20 13:26:53;;;;;;;;;;;35.90;63.70;;;36.64;31.97;98995.53;4923242;28;119698;-78
2023/08/20 13:29:25;;;;;;;;;;;36.00;63.10;;;36.74;31.47;98997.09;4985398;28;118270;-78
2023/08/20 13:32:20;;;;;;;;;;;36.10;62.30;;;36.80;31.47;98988.59;4968265;28;123882;-78
2023/08/20 13:34:56;;;;;;;;;;;34.70;61.10;;;36.91;31.04;98980.19;4966989;28;123970;-79
2023/08/20 13:37:32;;;;;;;;;;;36.20;61.20;;;36.90;30.71;98984.38;4964094;28;118896;-80
2023/08/20 13:40:43;;;;;;;;;;;36.20;60.30;;;36.83;31.16;98987.59;4983719;28;118855;-80
2023/08/20 13:50:18;;;;;;;;;;;36.20;60.30;;;36.88;31.03;98979.09;4978651;28;120050;-79
2023/08/20 13:53:21;;;;;;;;;;;36.30;60.00;;;36.97;30.91;98980.31;4968000;28;118620;-80
2023/08/20 13:59:29;;;;;;;;;;;36.50;59.90;;;37.30;30.85;98968.78;4975740;28;123378;-79
2023/08/20 14:02:02;;;;;;;;;;;36.60;59.80;;;37.47;30.72;98977.75;4970444;28;120425;-80
2023/08/20 14:04:31;;;;;;;;;;;36.80;59.70;;;37.65;30.59;98971.88;4971458;28;119854;-79
2023/08/20 14:10:42;;;;;;;;;;;37.00;59.90;;;37.96;30.13;98961.97;4987476;28;124049;-79
2023/08/20 14:13:12;;;;;;;;;;;37.20;58.90;;;38.09;30.12;98962.47;4978535;28;119824;-80
2023/08/20 14:15:44;;;;;;;;;;;37.30;58.70;;;38.22;29.79;98965.84;4989891;28;118629;-80
2023/08/20 14:18:31;;;;;;;;;;;37.50;58.30;;;38.35;29.52;98956.09;4978062;28;124945;-80
2023/08/20 14:21:11;;;;;;;;;;;37.70;57.80;;;38.41;29.66;98956.97;4968086;28;123451;-79
2023/08/20 14:23:37;;;;;;;;;;;37.70;58.00;;;38.48;29.62;98956.59;4975504;28;119441;-80
2023/08/20 14:29:22;;;;;;;;;;;37.90;56.90;;;38.69;29.61;98954.56;4987776;28;124487;-80
2023/08/20 14:31:58;;;;;;;;;;;38.10;57.00;;;38.91;29.39;98951.22;4987766;28;123579;-80
2023/08/20 14:34:42;;;;;;;;;;;38.30;57.40;;;39.01;28.82;98944.00;4979031;28;119507;-80
2023/08/20 14:37:13;;;;;;;;;;;38.40;56.30;;;38.98;29.01;98950.78;4967616;28;118367;-80